Ioannis K.ii — SX2779 — position and weather

sailwx.info

Track history (hours):
 
Tides and Currents Weather Stations Pressure Air Temp Water Temp Dewpoint Dewpoint Depression Visibility Wind Speed Wind Dir Waves Ship Positions

Ioannis K.ii

Last reported at 2017-Dec-01 18:13 UTC. Time now 2017-Dec-12 22:01 UTC.
Position N 37°54' E 023°01'.
Warning: this ship's position is 11 days out of date.

Length 28 m; draft 3 m.

Type: Fishing. MMSI: 237536000.

Date/timePositionNaut miles runAvg speedWind from/ knotsBaromVisibWave heightAir tempDewpointWater temp
2017-Dec-01 18:13N 37°54' E 023°01'0 0.3
2017-Dec-01 17:36N 37°54' E 023°01'0 0.5
2017-Dec-01 17:21N 37°54' E 023°01'2 5.8
2017-Dec-01 17:00N 37°53' E 023°04'23 1.2
2017-Nov-30 21:04N 37°53' E 023°34'0 6.9
2017-Nov-30 21:00N 37°53' E 023°34'3 6.3
2017-Nov-30 20:28N 37°57' E 023°35'1 0.1
2017-Nov-29 19:25N 37°57' E 023°37'3 7.8
2017-Nov-29 19:00N 37°54' E 023°36'  
Track history (hours):
 
Tides and Currents Weather Stations Pressure Air Temp Water Temp Dewpoint Dewpoint Depression Visibility Wind Speed Wind Dir Waves Ship Positions

Ioannis K.ii

Last reported at 2017-Dec-01 18:13 UTC. Time now 2017-Dec-12 22:01 UTC.
Position N 37°54' E 023°01'.
Warning: this ship's position is 11 days out of date.

Length 28 m; draft 3 m.

Type: Fishing. MMSI: 237536000.

Date/timePositionNaut miles runAvg speedWind from/ knotsBaromVisibWave heightAir tempDewpointWater temp
2017-Dec-01 18:13N 37°54' E 023°01'0 0.3
2017-Dec-01 17:36N 37°54' E 023°01'0 0.5
2017-Dec-01 17:21N 37°54' E 023°01'2 5.8
2017-Dec-01 17:00N 37°53' E 023°04'23 1.2
2017-Nov-30 21:04N 37°53' E 023°34'0 6.9
2017-Nov-30 21:00N 37°53' E 023°34'3 6.3
2017-Nov-30 20:28N 37°57' E 023°35'1 0.1
2017-Nov-29 19:25N 37°57' E 023°37'3 7.8
2017-Nov-29 19:00N 37°54' E 023°36'  

Dump ship's entire track history